Time;durP1;ratioP1;P1;durP2;ratioP2;P2;SDS_P1;SDS_P2;PMS_P1;PMS_P2;Temp;Humidity;BMP_temperature;BMP_pressure;BME280_temperature;BME280_humidity;BME280_pressure;Samples;Min_cycle;Max_cycle;Signal;HPM_P1;HPM_P2
2023/06/20 00:00:11;;;;;;;5.10;4.40;;;23.20;72.00;;;;;;5039945;28;20197;-83
2023/06/20 00:02:38;;;;;;;5.82;4.88;;;23.20;72.30;;;;;;5073353;28;20435;-83
2023/06/20 00:05:04;;;;;;;5.15;4.40;;;23.20;72.60;;;;;;5039853;28;20371;-82
2023/06/20 00:07:31;;;;;;;5.90;4.50;;;23.10;72.80;;;;;;5056555;28;20496;-82
2023/06/20 00:09:57;;;;;;;6.32;4.40;;;23.10;72.90;;;;;;5073927;28;20024;-83
2023/06/20 00:12:23;;;;;;;6.68;4.35;;;23.10;73.00;;;;;;5056497;28;20031;-82
2023/06/20 00:14:48;;;;;;;5.25;4.50;;;23.10;73.10;;;;;;5017867;28;1124700;-83
2023/06/20 00:17:14;;;;;;;5.35;4.75;;;23.10;73.10;;;;;;5057962;28;20131;-82
2023/06/20 00:19:40;;;;;;;6.25;4.82;;;23.00;73.10;;;;;;5058342;28;20389;-82
2023/06/20 00:22:06;;;;;;;4.88;4.22;;;23.10;73.10;;;;;;5076932;28;20024;-82
2023/06/20 00:24:32;;;;;;;5.70;4.68;;;23.00;73.10;;;;;;5072921;28;20039;-82
2023/06/20 00:27:01;;;;;;;5.53;4.60;;;23.00;73.00;;;;;;5099361;28;20032;-82
2023/06/20 00:29:27;;;;;;;4.88;4.38;;;23.00;73.10;;;;;;5099591;28;20017;-82
2023/06/20 00:31:53;;;;;;;6.05;4.78;;;22.90;73.10;;;;;;5082251;28;20012;-82
2023/06/20 00:34:19;;;;;;;5.82;4.80;;;22.90;73.20;;;;;;5081299;28;20059;-82
2023/06/20 00:36:44;;;;;;;6.45;4.57;;;22.80;73.30;;;;;;5086564;28;20040;-82
2023/06/20 00:39:10;;;;;;;5.15;4.55;;;22.80;73.40;;;;;;5074805;28;20128;-82
2023/06/20 00:41:36;;;;;;;4.93;4.43;;;22.80;73.40;;;;;;5057667;28;20070;-82
2023/06/20 00:44:03;;;;;;;6.00;4.75;;;22.80;73.50;;;;;;5057260;28;20031;-82
2023/06/20 00:46:32;;;;;;;6.45;4.50;;;22.70;73.60;;;;;;5040028;28;20043;-83
2023/06/20 00:48:59;;;;;;;6.88;5.00;;;22.70;73.70;;;;;;5056127;28;20359;-82
2023/06/20 00:51:28;;;;;;;5.05;4.55;;;22.70;73.70;;;;;;5075032;28;20078;-82
2023/06/20 00:53:55;;;;;;;4.55;4.13;;;22.80;73.70;;;;;;5074585;28;20074;-82
2023/06/20 00:56:24;;;;;;;5.85;5.00;;;22.70;73.80;;;;;;5040228;28;20101;-82
2023/06/20 00:58:49;;;;;;;5.65;4.68;;;22.80;73.90;;;;;;5057094;28;20036;-82
2023/06/20 01:01:18;;;;;;;5.78;4.93;;;22.80;73.90;;;;;;5040178;28;20363;-82
2023/06/20 01:03:46;;;;;;;6.20;4.82;;;22.70;73.90;;;;;;5056944;28;20102;-82
2023/06/20 01:06:41;;;;;;;5.07;4.47;;;22.70;74.00;;;;;;5073401;28;20033;-82
2023/06/20 01:09:26;;;;;;;6.07;5.20;;;22.70;74.00;;;;;;5056421;28;20024;-82
2023/06/20 01:12:03;;;;;;;6.32;5.35;;;22.70;74.10;;;;;;5056353;28;20071;-82
2023/06/20 01:15:01;;;;;;;5.38;4.88;;;22.60;74.10;;;;;;5056637;28;20059;-82
2023/06/20 01:17:36;;;;;;;5.10;4.20;;;22.60;74.20;;;;;;5074378;28;20036;-82
2023/06/20 01:20:14;;;;;;;5.53;4.35;;;22.70;74.30;;;;;;5056100;28;20405;-82
2023/06/20 01:23:02;;;;;;;6.07;4.57;;;22.70;74.20;;;;;;5055858;28;20082;-82
2023/06/20 01:25:31;;;;;;;5.88;4.47;;;22.70;74.30;;;;;;5074307;28;20024;-82
2023/06/20 01:28:27;;;;;;;6.38;4.60;;;22.70;74.30;;;;;;5073802;28;20464;-82
2023/06/20 01:31:07;;;;;;;6.10;5.05;;;22.70;74.30;;;;;;5056159;28;20079;-82
2023/06/20 01:33:41;;;;;;;5.18;4.68;;;22.70;74.30;;;;;;5055982;28;20111;-83
2023/06/20 01:36:09;;;;;;;5.53;4.85;;;22.70;74.30;;;;;;5073658;28;20021;-82
2023/06/20 01:38:38;;;;;;;6.00;4.93;;;22.70;74.40;;;;;;5055749;28;20032;-82
2023/06/20 01:41:04;;;;;;;6.18;4.85;;;22.70;74.50;;;;;;5073682;28;20465;-82
2023/06/20 01:43:32;;;;;;;5.80;4.70;;;22.70;74.50;;;;;;5074098;28;20082;-82
2023/06/20 01:46:00;;;;;;;6.97;5.00;;;22.70;74.60;;;;;;5074004;28;20428;-82
2023/06/20 01:48:28;;;;;;;5.38;4.85;;;22.70;74.60;;;;;;5073779;28;20077;-82
2023/06/20 01:50:55;;;;;;;7.03;5.30;;;22.70;74.60;;;;;;5073734;28;20135;-82
2023/06/20 01:53:24;;;;;;;8.05;4.70;;;22.70;74.60;;;;;;5055255;28;20375;-82
2023/06/20 01:55:52;;;;;;;5.60;5.03;;;22.70;74.60;;;;;;5039072;28;20020;-82
2023/06/20 01:58:19;;;;;;;5.25;4.55;;;22.70;74.70;;;;;;5038995;28;20091;-82
2023/06/20 02:00:45;;;;;;;5.78;4.70;;;22.70;74.70;;;;;;5073820;28;20021;-82
2023/06/20 02:03:13;;;;;;;6.22;4.93;;;22.70;74.60;;;;;;5038865;28;20500;-82
2023/06/20 02:05:41;;;;;;;6.85;5.15;;;22.70;74.60;;;;;;5055405;28;20485;-82
2023/06/20 02:08:08;;;;;;;7.57;5.07;;;22.80;74.80;;;;;;5073568;28;20024;-82
2023/06/20 02:10:34;;;;;;;5.47;4.80;;;22.70;74.70;;;;;;5073893;28;20039;-82
2023/06/20 02:13:01;;;;;;;5.40;4.90;;;22.70;74.80;;;;;;5055358;28;20024;-82
2023/06/20 02:15:28;;;;;;;5.97;4.97;;;22.70;74.80;;;;;;5054930;28;20055;-83
2023/06/20 02:17:54;;;;;;;6.25;5.35;;;22.70;74.90;;;;;;5073523;28;20017;-83
2023/06/20 02:20:20;;;;;;;6.50;5.05;;;22.70;75.00;;;;;;5074056;28;20050;-83
2023/06/20 02:22:48;;;;;;;5.88;5.28;;;22.70;75.00;;;;;;5055599;28;20033;-82
2023/06/20 02:25:21;;;;;;;5.97;5.32;;;22.70;75.00;;;;;;5039769;28;20035;-82
2023/06/20 02:27:50;;;;;;;6.30;5.40;;;22.70;75.10;;;;;;5060245;28;20013;-82
2023/06/20 02:30:17;;;;;;;6.63;5.03;;;22.60;75.00;;;;;;5079826;28;20046;-82
2023/06/20 02:32:45;;;;;;;6.72;5.22;;;22.60;75.10;;;;;;5080161;28;20024;-81
2023/06/20 02:35:13;;;;;;;6.07;4.95;;;22.60;75.20;;;;;;5097329;28;20055;-82
2023/06/20 02:37:41;;;;;;;7.57;5.55;;;22.60;75.20;;;;;;5096572;28;20443;-82
2023/06/20 02:40:09;;;;;;;5.88;5.15;;;22.60;75.20;;;;;;5082404;28;20028;-82
2023/06/20 02:42:34;;;;;;;5.47;4.97;;;22.60;75.20;;;;;;5056793;28;20051;-82
2023/06/20 02:45:01;;;;;;;8.27;5.70;;;22.60;75.30;;;;;;5056478;28;20025;-82
2023/06/20 02:47:48;;;;;;;9.40;6.10;;;22.60;75.40;;;;;;5038955;28;20386;-82
2023/06/20 02:50:43;;;;;;;7.88;6.20;;;22.60;75.60;;;;;;5073170;28;20027;-82
2023/06/20 02:53:25;;;;;;;6.05;5.45;;;22.60;75.70;;;;;;5031876;28;20032;-82
2023/06/20 02:56:01;;;;;;;6.28;5.38;;;22.60;75.80;;;;;;5073036;28;20116;-83
2023/06/20 02:58:29;;;;;;;7.30;5.10;;;22.50;75.80;;;;;;5073181;28;20378;-83
2023/06/20 03:00:58;;;;;;;6.43;5.18;;;22.60;75.80;;;;;;5055169;28;20474;-83
2023/06/20 03:03:32;;;;;;;6.77;5.43;;;22.60;75.90;;;;;;5072447;28;20044;-82
2023/06/20 03:05:59;;;;;;;6.95;5.55;;;22.50;75.90;;;;;;5072900;28;20036;-82
2023/06/20 03:08:27;;;;;;;6.88;5.38;;;22.60;76.10;;;;;;5054741;28;20032;-82
2023/06/20 03:10:54;;;;;;;5.88;5.28;;;22.60;76.10;;;;;;5055237;28;20064;-82
2023/06/20 03:13:20;;;;;;;6.28;5.68;;;22.60;76.20;;;;;;5040732;28;20031;-83
2023/06/20 03:15:49;;;;;;;6.80;5.93;;;22.50;76.20;;;;;;5075885;28;20055;-83
2023/06/20 03:18:18;;;;;;;6.47;5.85;;;22.60;76.30;;;;;;5058932;28;20067;-82
2023/06/20 03:20:48;;;;;;;6.60;6.00;;;22.50;76.30;;;;;;5042448;28;20032;-83
2023/06/20 03:23:15;;;;;;;6.97;6.00;;;22.60;76.40;;;;;;5058504;28;20417;-82
2023/06/20 03:25:41;;;;;;;6.35;5.68;;;22.60;76.40;;;;;;5057898;28;20021;-82
2023/06/20 03:28:07;;;;;;;6.05;5.45;;;22.50;76.50;;;;;;5058295;28;20129;-82
2023/06/20 03:30:35;;;;;;;8.45;6.32;;;22.60;76.50;;;;;;5076050;28;20035;-83
2023/06/20 03:33:00;;;;;;;6.60;5.80;;;22.60;76.60;;;;;;5041726;28;20029;-82
2023/06/20 03:35:26;;;;;;;7.03;6.10;;;22.60;76.60;;;;;;5076470;28;20081;-82
2023/06/20 03:37:53;;;;;;;6.60;5.90;;;22.60;76.60;;;;;;5058232;28;20554;-82
2023/06/20 03:40:19;;;;;;;7.38;6.10;;;22.60;76.80;;;;;;5075335;28;20366;-82
2023/06/20 03:42:44;;;;;;;6.72;5.97;;;22.60;76.90;;;;;;5058054;28;20461;-82
2023/06/20 03:45:10;;;;;;;6.57;5.90;;;22.50;76.90;;;;;;5074372;28;20028;-83
2023/06/20 03:47:36;;;;;;;7.28;6.30;;;22.50;77.10;;;;;;5058110;28;20095;-82
2023/06/20 03:50:02;;;;;;;7.35;6.30;;;22.50;77.10;;;;;;5075569;28;20433;-82
2023/06/20 03:52:27;;;;;;;7.80;6.30;;;22.40;77.20;;;;;;5057679;28;20124;-82
2023/06/20 03:54:53;;;;;;;6.78;5.93;;;22.40;77.20;;;;;;5058371;28;20039;-82
2023/06/20 03:57:18;;;;;;;6.43;5.63;;;22.40;77.20;;;;;;5058013;28;20373;-82
2023/06/20 03:59:44;;;;;;;7.82;6.35;;;22.50;77.20;;;;;;5041088;28;20036;-82
2023/06/20 04:02:10;;;;;;;7.00;6.10;;;22.50;77.20;;;;;;5041287;28;20142;-82
2023/06/20 04:04:37;;;;;;;7.22;6.00;;;22.50;77.20;;;;;;5058015;28;20469;-83
2023/06/20 04:07:02;;;;;;;7.32;6.32;;;22.50;77.30;;;;;;5057947;28;20031;-82
2023/06/20 04:09:28;;;;;;;6.55;5.95;;;22.50;77.30;;;;;;5076059;28;20141;-82
2023/06/20 04:11:54;;;;;;;7.07;6.38;;;22.50;77.40;;;;;;5057987;28;20119;-83
2023/06/20 04:14:20;;;;;;;7.30;6.13;;;22.50;77.50;;;;;;5040996;28;20021;-82
2023/06/20 04:16:47;;;;;;;7.47;6.25;;;22.50;77.60;;;;;;5075634;28;20474;-82
2023/06/20 04:19:14;;;;;;;7.32;6.30;;;22.40;77.70;;;;;;5058497;28;20044;-83
2023/06/20 04:21:40;;;;;;;7.15;6.45;;;22.40;77.80;;;;;;5061187;28;20032;-82
2023/06/20 04:24:06;;;;;;;7.22;6.53;;;22.40;77.80;;;;;;5078477;28;20039;-82
2023/06/20 04:26:31;;;;;;;7.57;6.43;;;22.50;78.00;;;;;;5086816;28;20044;-82
2023/06/20 04:28:57;;;;;;;6.65;6.03;;;22.50;78.00;;;;;;5078491;28;20037;-82
2023/06/20 04:31:24;;;;;;;7.63;6.63;;;22.50;78.00;;;;;;5061501;28;20025;-80
2023/06/20 04:33:54;;;;;;;7.20;6.50;;;22.40;78.10;;;;;;5058529;28;20074;-82
2023/06/20 04:36:20;;;;;;;7.55;6.28;;;22.40;78.20;;;;;;5072574;28;20115;-83
2023/06/20 04:38:48;;;;;;;7.25;6.35;;;22.40;78.30;;;;;;5050680;28;20056;-82
2023/06/20 04:41:14;;;;;;;7.60;6.68;;;22.40;79.00;;;;;;5058430;28;20119;-82
2023/06/20 04:43:44;;;;;;;8.40;6.93;;;22.40;78.40;;;;;;5041106;28;20063;-82
2023/06/20 04:46:12;;;;;;;7.00;5.80;;;22.40;78.40;;;;;;5075308;28;20025;-82
2023/06/20 04:48:42;;;;;;;7.82;7.03;;;22.40;78.40;;;;;;5040140;28;20028;-82
2023/06/20 04:51:11;;;;;;;7.32;6.13;;;22.40;78.40;;;;;;5075078;28;20021;-82
2023/06/20 04:53:37;;;;;;;7.88;6.32;;;22.40;78.40;;;;;;5056592;28;20025;-82
2023/06/20 04:56:03;;;;;;;7.80;7.00;;;22.40;78.50;;;;;;5074727;28;20074;-82
2023/06/20 04:58:29;;;;;;;9.05;7.22;;;22.40;78.40;;;;;;5040171;28;20040;-82
2023/06/20 05:00:58;;;;;;;7.70;6.22;;;22.50;78.50;;;;;;5074586;28;20107;-82
2023/06/20 05:03:24;;;;;;;8.13;7.25;;;22.50;78.60;;;;;;5056358;28;20017;-82
2023/06/20 05:05:53;;;;;;;7.85;6.82;;;22.50;78.60;;;;;;5056379;28;20516;-82
2023/06/20 05:08:19;;;;;;;8.43;7.63;;;22.50;78.60;;;;;;5075085;28;20031;-82
2023/06/20 05:10:45;;;;;;;8.52;7.60;;;22.50;78.60;;;;;;5056697;28;20025;-82
2023/06/20 05:13:10;;;;;;;8.32;7.40;;;22.50;78.70;;;;;;5056312;28;20020;-82
2023/06/20 05:15:37;;;;;;;7.60;6.90;;;22.50;78.80;;;;;;5073750;28;20048;-82
2023/06/20 05:18:02;;;;;;;10.20;7.75;;;22.50;79.50;;;;;;5056395;28;20491;-82
2023/06/20 05:20:28;;;;;;;8.60;7.70;;;22.50;78.90;;;;;;5056396;28;20033;-82
2023/06/20 05:22:54;;;;;;;8.57;7.63;;;22.60;78.90;;;;;;5039528;28;20029;-82
2023/06/20 05:25:20;;;;;;;8.70;7.80;;;22.50;78.90;;;;;;5056268;28;20029;-82
2023/06/20 05:27:47;;;;;;;9.05;7.82;;;22.60;78.90;;;;;;5039504;28;20029;-82
2023/06/20 05:30:13;;;;;;;8.40;7.60;;;22.60;79.50;;;;;;5056331;28;20424;-82
2023/06/20 05:32:38;;;;;;;9.27;7.43;;;22.60;78.90;;;;;;5073704;28;20025;-82
2023/06/20 05:35:07;;;;;;;7.35;6.65;;;22.60;79.00;;;;;;5073842;28;20020;-82
2023/06/20 05:37:36;;;;;;;8.82;7.93;;;22.60;79.10;;;;;;5039923;28;20116;-82
2023/06/20 05:40:05;;;;;;;9.15;7.82;;;22.60;79.20;;;;;;5039442;28;20116;-82
2023/06/20 05:42:31;;;;;;;8.45;7.65;;;22.60;79.30;;;;;;5073824;28;20070;-82
2023/06/20 05:45:00;;;;;;;7.68;6.97;;;22.70;79.30;;;;;;5039569;28;20059;-82
2023/06/20 05:47:25;;;;;;;9.18;8.10;;;22.70;79.30;;;;;;5039799;28;20113;-82
2023/06/20 05:49:51;;;;;;;8.40;7.55;;;22.70;79.30;;;;;;5072387;28;20094;-82
2023/06/20 05:52:16;;;;;;;9.85;8.88;;;22.80;79.30;;;;;;5055795;28;20478;-82
2023/06/20 05:54:45;;;;;;;9.10;8.20;;;22.70;79.30;;;;;;5039035;28;20119;-82
2023/06/20 05:57:11;;;;;;;8.48;7.68;;;22.80;79.40;;;;;;5073790;28;20032;-82
2023/06/20 05:59:36;;;;;;;9.48;7.72;;;22.80;79.50;;;;;;5072379;28;20028;-82
2023/06/20 06:02:04;;;;;;;9.30;8.40;;;22.80;79.60;;;;;;5038978;28;20492;-82
2023/06/20 06:04:31;;;;;;;9.60;8.27;;;22.80;80.20;;;;;;5073668;28;20111;-82
2023/06/20 06:06:57;;;;;;;12.60;7.97;;;22.90;79.70;;;;;;5055971;28;20020;-82
2023/06/20 06:09:23;;;;;;;13.63;9.38;;;22.90;79.80;;;;;;5056036;28;20090;-82
2023/06/20 06:11:48;;;;;;;10.30;8.15;;;22.90;79.80;;;;;;5056262;28;20108;-82
2023/06/20 06:14:18;;;;;;;8.45;7.65;;;22.90;79.90;;;;;;5055937;28;20060;-82
2023/06/20 06:16:44;;;;;;;9.77;7.82;;;23.00;80.50;;;;;;5055708;28;20551;-82
2023/06/20 06:19:10;;;;;;;10.07;7.82;;;23.00;79.80;;;;;;5039107;28;20044;-82
2023/06/20 06:21:36;;;;;;;8.20;7.40;;;23.00;79.90;;;;;;5039105;28;20083;-82
2023/06/20 06:24:01;;;;;;;10.15;8.32;;;23.10;79.90;;;;;;5072494;28;20070;-83
2023/06/20 06:26:27;;;;;;;11.02;8.98;;;23.10;79.90;;;;;;5056074;28;20032;-82
2023/06/20 06:28:53;;;;;;;9.65;8.68;;;23.20;80.00;;;;;;5056849;28;20166;-83
2023/06/20 06:31:27;;;;;;;9.30;8.40;;;23.20;80.00;;;;;;5059543;28;20145;-83
2023/06/20 06:33:56;;;;;;;9.48;8.57;;;23.20;80.20;;;;;;5063651;28;20036;-82
2023/06/20 06:36:23;;;;;;;8.23;7.43;;;23.30;80.20;;;;;;5077115;28;20035;-81
2023/06/20 06:38:48;;;;;;;7.78;7.07;;;23.30;80.20;;;;;;5062948;28;20016;-82
2023/06/20 06:41:18;;;;;;;8.75;7.95;;;23.40;80.20;;;;;;5056503;28;20055;-82
2023/06/20 06:43:44;;;;;;;9.30;8.30;;;23.40;80.20;;;;;;5079534;28;20040;-82
2023/06/20 06:46:10;;;;;;;10.40;9.40;;;23.50;80.20;;;;;;5072769;28;20096;-82
2023/06/20 06:48:36;;;;;;;8.93;8.00;;;23.50;80.30;;;;;;5076850;28;20125;-82
2023/06/20 06:51:03;;;;;;;8.80;7.90;;;23.60;80.30;;;;;;5059437;28;20032;-82
2023/06/20 06:53:29;;;;;;;8.57;7.70;;;23.70;80.40;;;;;;5059254;28;20027;-83
2023/06/20 06:55:54;;;;;;;9.55;8.60;;;23.70;80.30;;;;;;5076722;28;20033;-83
2023/06/20 06:58:20;;;;;;;9.15;8.02;;;23.80;80.50;;;;;;5059087;28;20064;-82
2023/06/20 07:00:46;;;;;;;9.90;8.82;;;23.90;80.50;;;;;;5042253;28;20071;-82
2023/06/20 07:03:11;;;;;;;9.30;8.32;;;24.00;80.40;;;;;;5058866;28;20086;-83
2023/06/20 07:05:40;;;;;;;10.35;9.13;;;24.00;80.40;;;;;;5076911;28;20439;-82
2023/06/20 07:08:06;;;;;;;9.73;8.13;;;24.10;80.40;;;;;;5042145;28;20024;-83
2023/06/20 07:10:32;;;;;;;8.35;7.55;;;24.20;80.40;;;;;;5076724;28;20035;-83
2023/06/20 07:12:57;;;;;;;8.10;7.40;;;24.20;80.40;;;;;;5058563;28;20044;-83
2023/06/20 07:15:23;;;;;;;8.35;7.65;;;24.30;80.30;;;;;;5041949;28;20091;-83
2023/06/20 07:17:49;;;;;;;7.93;7.00;;;24.40;80.30;;;;;;5058366;28;20063;-83
2023/06/20 07:20:17;;;;;;;9.05;8.15;;;24.50;80.30;;;;;;5058364;28;20417;-83
2023/06/20 07:22:42;;;;;;;8.75;7.88;;;24.50;80.10;;;;;;5042014;28;20021;-83
2023/06/20 07:25:08;;;;;;;12.13;7.93;;;24.60;80.10;;;;;;5076566;28;20036;-83
2023/06/20 07:27:34;;;;;;;9.07;8.20;;;24.60;80.00;;;;;;5041798;28;20047;-83
2023/06/20 07:30:00;;;;;;;7.85;7.22;;;24.70;80.00;;;;;;5041658;28;20130;-82
2023/06/20 07:32:25;;;;;;;8.05;7.25;;;24.70;79.90;;;;;;5058398;28;20044;-83
2023/06/20 07:34:51;;;;;;;8.63;7.78;;;24.70;79.90;;;;;;5058302;28;20032;-83
2023/06/20 07:37:17;;;;;;;8.65;7.78;;;24.80;80.10;;;;;;5059021;28;20503;-83
2023/06/20 07:39:42;;;;;;;8.23;7.43;;;24.90;80.00;;;;;;5057759;28;20457;-82
2023/06/20 07:42:09;;;;;;;9.82;7.90;;;25.00;79.90;;;;;;5058326;28;20035;-83
2023/06/20 07:44:34;;;;;;;7.88;7.10;;;25.10;80.00;;;;;;5074415;28;20082;-82
2023/06/20 07:47:00;;;;;;;8.30;7.50;;;25.10;79.90;;;;;;5057891;28;20025;-82
2023/06/20 07:49:28;;;;;;;8.70;7.93;;;25.20;79.80;;;;;;5076234;28;20043;-82
2023/06/20 07:51:56;;;;;;;7.40;6.80;;;25.20;79.80;;;;;;5075548;28;20383;-82
2023/06/20 07:54:22;;;;;;;8.02;7.22;;;25.30;80.00;;;;;;5075167;28;20024;-82
2023/06/20 07:56:48;;;;;;;8.15;7.45;;;25.40;80.00;;;;;;5057907;28;20027;-82
2023/06/20 07:59:13;;;;;;;7.47;6.78;;;25.40;79.80;;;;;;5057946;28;20028;-82
2023/06/20 08:01:39;;;;;;;8.38;7.45;;;25.50;79.80;;;;;;5057959;28;20489;-82
2023/06/20 08:04:05;;;;;;;7.72;6.97;;;25.50;79.70;;;;;;5074504;28;20020;-83
2023/06/20 08:06:30;;;;;;;6.93;6.22;;;25.60;79.80;;;;;;5075811;28;20032;-82
2023/06/20 08:08:56;;;;;;;6.70;6.10;;;25.60;79.70;;;;;;5075573;28;20035;-82
2023/06/20 08:11:22;;;;;;;6.70;6.10;;;25.70;79.80;;;;;;5075344;28;20037;-83
2023/06/20 08:13:48;;;;;;;5.72;5.15;;;25.80;79.80;;;;;;5057786;28;20024;-83
2023/06/20 08:16:17;;;;;;;5.68;5.25;;;25.80;79.80;;;;;;5075918;28;20051;-83
2023/06/20 08:18:43;;;;;;;6.72;6.13;;;25.90;79.90;;;;;;5057400;28;20477;-83
2023/06/20 08:21:08;;;;;;;7.00;6.30;;;26.00;79.80;;;;;;5075222;28;20039;-83
2023/06/20 08:23:34;;;;;;;6.10;5.50;;;26.00;79.60;;;;;;5057333;28;20029;-82
2023/06/20 08:26:00;;;;;;;5.90;5.30;;;26.10;79.60;;;;;;5059439;28;20025;-83
2023/06/20 08:28:26;;;;;;;5.70;5.20;;;26.20;79.60;;;;;;5059512;28;20124;-82
2023/06/20 08:30:52;;;;;;;6.20;5.63;;;26.20;79.50;;;;;;5058188;28;20029;-83
2023/06/20 08:33:19;;;;;;;5.18;4.68;;;26.20;79.40;;;;;;5077329;28;20024;-83
2023/06/20 08:35:45;;;;;;;5.03;4.53;;;26.30;79.30;;;;;;5076125;28;20020;-82
2023/06/20 08:38:11;;;;;;;4.43;4.07;;;26.40;79.20;;;;;;5064044;28;20043;-83
2023/06/20 08:40:40;;;;;;;5.57;5.07;;;26.40;79.10;;;;;;5096946;28;20012;-83
2023/06/20 08:43:14;;;;;;;5.22;4.80;;;26.50;79.10;;;;;;5080821;28;20028;-83
2023/06/20 08:45:40;;;;;;;4.85;4.45;;;26.50;78.90;;;;;;5081533;28;20038;-83
2023/06/20 08:48:09;;;;;;;4.90;4.50;;;26.50;78.80;;;;;;5080330;28;20180;-83
2023/06/20 08:50:39;;;;;;;5.45;4.43;;;26.60;78.60;;;;;;5079293;28;20005;-83
2023/06/20 08:53:07;;;;;;;5.07;4.50;;;26.70;78.60;;;;;;5060787;28;20059;-83
2023/06/20 08:55:35;;;;;;;4.95;4.53;;;26.70;78.50;;;;;;5076289;28;20052;-83
2023/06/20 08:58:01;;;;;;;5.65;5.15;;;26.80;78.40;;;;;;5076688;28;20029;-83
2023/06/20 09:00:30;;;;;;;5.75;5.25;;;26.80;78.10;;;;;;5075917;28;20025;-83
2023/06/20 09:02:55;;;;;;;5.25;4.75;;;26.80;77.90;;;;;;5074978;28;20017;-83
2023/06/20 09:05:21;;;;;;;5.53;5.03;;;26.80;77.80;;;;;;5075106;28;20086;-83
2023/06/20 09:07:50;;;;;;;5.57;5.07;;;26.90;77.80;;;;;;5057099;28;20362;-83
2023/06/20 09:10:19;;;;;;;6.03;5.43;;;26.90;77.70;;;;;;5056610;28;20458;-83
2023/06/20 09:12:50;;;;;;;5.18;4.68;;;27.00;77.70;;;;;;5056729;28;20354;-83
2023/06/20 09:15:19;;;;;;;6.10;5.50;;;27.00;77.60;;;;;;5074564;28;20072;-83
2023/06/20 09:17:45;;;;;;;5.57;5.07;;;27.10;77.40;;;;;;5056483;28;20021;-83
2023/06/20 09:20:13;;;;;;;5.53;4.68;;;27.10;77.20;;;;;;5039770;28;20039;-83
2023/06/20 09:22:40;;;;;;;4.57;4.18;;;27.10;77.20;;;;;;5074342;28;20032;-83
2023/06/20 09:25:07;;;;;;;4.95;4.45;;;27.20;77.40;;;;;;5056345;28;20453;-83
2023/06/20 09:27:35;;;;;;;5.80;4.82;;;27.30;77.40;;;;;;5073932;28;20500;-83
2023/06/20 09:30:03;;;;;;;5.90;5.30;;;27.30;77.20;;;;;;5074527;28;20028;-83
2023/06/20 09:32:36;;;;;;;5.10;4.70;;;27.30;77.10;;;;;;5056836;28;20025;-83
2023/06/20 09:35:04;;;;;;;5.18;4.65;;;27.30;77.20;;;;;;5039506;28;20043;-83
2023/06/20 09:37:56;;;;;;;5.68;5.18;;;27.40;77.10;;;;;;5056356;28;20021;-83
2023/06/20 09:40:21;;;;;;;6.78;5.22;;;27.40;76.90;;;;;;5071177;28;20573;-83
2023/06/20 09:42:48;;;;;;;5.22;4.72;;;27.40;76.90;;;;;;5073661;28;20063;-83
2023/06/20 09:45:18;;;;;;;4.82;4.32;;;27.40;76.90;;;;;;5073979;28;20023;-83
2023/06/20 09:47:44;;;;;;;4.60;4.20;;;27.40;76.90;;;;;;5056372;28;20020;-83
2023/06/20 09:50:19;;;;;;;3.92;3.58;;;27.50;76.90;;;;;;5055664;28;20489;-83
2023/06/20 09:53:16;;;;;;;4.80;4.30;;;27.50;76.90;;;;;;5057258;28;20038;-83
2023/06/20 09:55:43;;;;;;;4.07;3.67;;;27.60;77.10;;;;;;5055852;28;20032;-83
2023/06/20 09:58:10;;;;;;;4.47;3.60;;;27.70;77.10;;;;;;5073537;28;20095;-83
2023/06/20 10:00:37;;;;;;;3.70;3.40;;;27.70;77.00;;;;;;5073740;28;20480;-83
2023/06/20 10:03:09;;;;;;;4.35;3.95;;;27.80;76.90;;;;;;5055577;28;20067;-83
2023/06/20 10:05:36;;;;;;;5.32;4.38;;;27.90;76.90;;;;;;5055915;28;20035;-83
2023/06/20 10:08:02;;;;;;;3.80;3.50;;;27.90;76.80;;;;;;5072795;28;20020;-83
2023/06/20 10:10:27;;;;;;;4.50;3.53;;;27.90;76.80;;;;;;5038894;28;20497;-84
2023/06/20 10:12:55;;;;;;;4.18;3.60;;;28.00;76.70;;;;;;5055713;28;20025;-83
2023/06/20 10:15:24;;;;;;;3.88;3.58;;;28.00;76.50;;;;;;5055220;28;20186;-83
2023/06/20 10:17:50;;;;;;;4.82;3.42;;;28.00;76.40;;;;;;5055101;28;20024;-84
2023/06/20 10:20:37;;;;;;;3.60;3.30;;;28.10;76.40;;;;;;5055357;28;20037;-83
2023/06/20 10:23:05;;;;;;;3.75;3.45;;;28.10;76.30;;;;;;5077836;28;20023;-83
2023/06/20 10:25:32;;;;;;;3.60;3.30;;;28.10;76.20;;;;;;5059867;28;20025;-83
2023/06/20 10:28:02;;;;;;;3.63;3.30;;;28.20;76.20;;;;;;5060459;28;20093;-83
2023/06/20 10:30:46;;;;;;;3.60;3.10;;;28.20;76.10;;;;;;5077654;28;20020;-83
2023/06/20 10:33:13;;;;;;;3.65;3.35;;;28.30;76.10;;;;;;5059564;28;20029;-83
2023/06/20 10:36:05;;;;;;;3.20;2.90;;;28.30;76.00;;;;;;5078092;28;20028;-83
2023/06/20 10:38:38;;;;;;;3.55;3.25;;;28.30;76.00;;;;;;5062482;28;20115;-83
2023/06/20 10:41:20;;;;;;;4.55;3.15;;;28.40;75.90;;;;;;5061219;28;20064;-83
2023/06/20 10:43:56;;;;;;;6.07;3.30;;;28.50;75.50;;;;;;5080612;28;20104;-84
2023/06/20 10:46:36;;;;;;;2.70;2.50;;;28.50;75.40;;;;;;5066434;28;20024;-84
2023/06/20 10:49:06;;;;;;;2.83;2.63;;;28.50;75.50;;;;;;5078542;28;20028;-83
2023/06/20 10:51:49;;;;;;;3.13;2.70;;;28.60;75.60;;;;;;5083405;28;20020;-83
2023/06/20 10:54:16;;;;;;;3.95;2.95;;;28.70;75.70;;;;;;5067858;28;20012;-84
2023/06/20 10:56:46;;;;;;;2.95;2.65;;;28.70;75.60;;;;;;5067609;28;20025;-84
2023/06/20 10:59:12;;;;;;;;;;;28.80;75.40;;;;;;5065662;28;20066;-84
2023/06/20 11:01:38;;;;;;;2.47;2.28;;;28.90;75.30;;;;;;5072186;28;19934;-84
2023/06/20 11:04:09;;;;;;;3.42;2.28;;;28.90;75.30;;;;;;5060795;28;20028;-84
2023/06/20 11:06:34;;;;;;;2.83;2.63;;;29.00;75.10;;;;;;5077452;28;20033;-85
2023/06/20 11:09:00;;;;;;;2.80;2.60;;;29.00;74.80;;;;;;5042382;28;20032;-84
2023/06/20 11:11:41;;;;;;;2.83;2.58;;;29.00;74.60;;;;;;5042384;28;20025;-84
2023/06/20 11:14:10;;;;;;;2.53;2.33;;;29.00;74.20;;;;;;5058559;28;20032;-84
2023/06/20 11:16:40;;;;;;;2.72;2.53;;;29.00;74.10;;;;;;5076957;28;20052;-84
2023/06/20 11:19:06;;;;;;;2.40;2.17;;;29.00;74.70;;;;;;5075590;28;20033;-83
2023/06/20 11:21:32;;;;;;;2.55;2.20;;;29.00;74.10;;;;;;5058958;28;20281;-84
2023/06/20 11:23:59;;;;;;;2.45;2.25;;;29.10;74.00;;;;;;5076781;28;20035;-84
2023/06/20 11:26:32;;;;;;;2.33;2.10;;;29.10;74.00;;;;;;5041889;28;20031;-84
2023/06/20 11:28:59;;;;;;;2.42;2.20;;;29.10;73.90;;;;;;5042189;28;20043;-84
2023/06/20 11:31:25;;;;;;;2.33;2.13;;;29.20;73.80;;;;;;5076530;28;20016;-85
2023/06/20 11:34:02;;;;;;;2.08;1.90;;;29.20;73.60;;;;;;5040689;28;20029;-84
2023/06/20 11:36:31;;;;;;;2.25;2.05;;;29.30;73.40;;;;;;5076408;28;20020;-85
2023/06/20 11:39:13;;;;;;;2.20;2.10;;;29.20;73.10;;;;;;5076449;28;20029;-86
2023/06/20 11:41:39;;;;;;;2.13;2.03;;;29.30;73.20;;;;;;5058202;28;20025;-84
2023/06/20 11:44:20;;;;;;;2.60;2.40;;;29.30;73.10;;;;;;5075975;28;20114;-88
2023/06/20 11:46:45;;;;;;;2.50;2.03;;;29.30;72.80;;;;;;5076372;28;20055;-84
2023/06/20 11:49:11;;;;;;;2.20;2.10;;;29.30;72.70;;;;;;5057918;28;20419;-84
2023/06/20 11:51:38;;;;;;;2.53;2.10;;;29.40;72.60;;;;;;5058491;28;20465;-85
2023/06/20 11:54:12;;;;;;;1.90;1.80;;;29.40;72.60;;;;;;5076010;28;20462;-85
2023/06/20 11:56:42;;;;;;;2.10;1.90;;;29.40;72.70;;;;;;5058002;28;20431;-85
2023/06/20 11:59:11;;;;;;;2.85;2.30;;;29.50;72.60;;;;;;5075931;28;20029;-84
2023/06/20 12:01:36;;;;;;;2.30;2.10;;;29.50;72.30;;;;;;5057932;28;20040;-83
2023/06/20 12:04:08;;;;;;;1.83;1.70;;;29.50;72.10;;;;;;5041475;28;20028;-82
2023/06/20 12:06:39;;;;;;;3.42;2.20;;;29.60;72.00;;;;;;5060482;28;20016;-83
2023/06/20 12:09:18;;;;;;;2.58;2.38;;;29.60;72.70;;;;;;5059839;28;20032;-84
2023/06/20 12:11:56;;;;;;;2.30;2.10;;;29.60;72.10;;;;;;5077470;28;20021;-84
2023/06/20 12:14:24;;;;;;;2.45;1.95;;;29.70;72.20;;;;;;5058587;28;20145;-83
2023/06/20 12:16:50;;;;;;;2.55;2.15;;;29.70;72.10;;;;;;5058815;28;20020;-84
2023/06/20 12:19:19;;;;;;;2.15;1.95;;;29.70;71.90;;;;;;5077119;28;20025;-83
2023/06/20 12:21:45;;;;;;;2.17;2.08;;;29.80;71.60;;;;;;5076678;28;20095;-82
2023/06/20 12:24:15;;;;;;;2.10;2.00;;;29.90;72.30;;;;;;5076512;28;20024;-83
2023/06/20 12:26:42;;;;;;;2.40;2.20;;;29.90;71.60;;;;;;5059187;28;20028;-84
2023/06/20 12:29:08;;;;;;;2.75;2.15;;;29.90;71.60;;;;;;5076924;28;20028;-84
2023/06/20 12:31:34;;;;;;;2.25;2.05;;;30.00;71.30;;;;;;5076378;28;20060;-84
2023/06/20 12:34:00;;;;;;;2.25;2.03;;;30.10;71.10;;;;;;5075765;28;20017;-84
2023/06/20 12:36:25;;;;;;;2.10;1.90;;;30.00;70.80;;;;;;5075878;28;20024;-84
2023/06/20 12:38:51;;;;;;;2.47;2.25;;;30.10;70.90;;;;;;5057809;28;20116;-84
2023/06/20 12:41:17;;;;;;;2.30;2.10;;;30.10;70.80;;;;;;5057779;28;20040;-84
2023/06/20 12:43:47;;;;;;;2.08;1.70;;;30.20;70.70;;;;;;5041499;28;20104;-84
2023/06/20 12:46:13;;;;;;;2.30;2.08;;;30.20;70.60;;;;;;5075377;28;20024;-84
2023/06/20 12:48:40;;;;;;;2.60;2.35;;;30.30;70.50;;;;;;5058256;28;20063;-85
2023/06/20 12:51:05;;;;;;;2.15;1.95;;;30.30;70.30;;;;;;5075724;28;20028;-85